Time;durP1;ratioP1;P1;durP2;ratioP2;P2;SDS_P1;SDS_P2;PMS_P1;PMS_P2;Temp;Humidity;BMP_temperature;BMP_pressure;BME280_temperature;BME280_humidity;BME280_pressure;Samples;Min_cycle;Max_cycle;Signal;HPM_P1;HPM_P2
2022/07/12 00:01:30;;;;;;;1.53;1.40;;;15.60;99.90;;;;;;5199103;28;20212;-50
2022/07/12 00:04:01;;;;;;;3.10;1.40;;;15.60;99.90;;;;;;5195321;28;20195;-50
2022/07/12 00:06:31;;;;;;;1.43;1.00;;;15.50;99.90;;;;;;5204882;28;20618;-49
2022/07/12 00:09:02;;;;;;;3.63;2.77;;;15.50;99.90;;;;;;5206695;28;20530;-48
2022/07/12 00:11:36;;;;;;;2.40;1.37;;;15.50;99.90;;;;;;5191789;28;20192;-49
2022/07/12 00:14:08;;;;;;;1.20;1.07;;;15.40;99.90;;;;;;5184065;28;20214;-48
2022/07/12 00:16:39;;;;;;;1.20;1.03;;;15.40;99.90;;;;;;5200360;28;20453;-50
2022/07/12 00:19:09;;;;;;;2.77;1.43;;;15.40;99.90;;;;;;5196201;28;20455;-48
2022/07/12 00:21:40;;;;;;;1.53;1.23;;;15.40;99.90;;;;;;5200648;28;20627;-50
2022/07/12 00:24:11;;;;;;;1.87;1.63;;;15.40;99.90;;;;;;5205133;28;20216;-49
2022/07/12 00:26:41;;;;;;;1.57;1.30;;;15.40;99.90;;;;;;5172984;28;20226;-48
2022/07/12 00:29:12;;;;;;;4.83;1.70;;;15.40;99.90;;;;;;5206384;28;20196;-49
2022/07/12 00:31:42;;;;;;;2.30;1.47;;;15.30;99.90;;;;;;5187035;28;20198;-47
2022/07/12 00:34:13;;;;;;;1.70;1.60;;;15.30;99.90;;;;;;5188525;28;20306;-47
2022/07/12 00:36:43;;;;;;;1.27;1.17;;;15.20;99.90;;;;;;5193210;28;20242;-52
2022/07/12 00:39:14;;;;;;;1.73;1.60;;;15.20;99.90;;;;;;5171360;28;20184;-48
2022/07/12 00:41:48;;;;;;;1.07;1.03;;;15.10;99.90;;;;;;5200127;28;20675;-49
2022/07/12 00:44:19;;;;;;;1.17;1.07;;;15.10;99.90;;;;;;5204390;28;20211;-48
2022/07/12 00:46:49;;;;;;;1.13;0.97;;;15.00;99.90;;;;;;5190967;28;20503;-48
2022/07/12 00:49:21;;;;;;;3.83;0.83;;;15.00;99.90;;;;;;5203557;28;20192;-49
2022/07/12 00:51:54;;;;;;;2.90;1.37;;;15.00;99.90;;;;;;5198382;28;20664;-48
2022/07/12 00:54:24;;;;;;;1.50;1.30;;;14.90;99.90;;;;;;5207744;28;20441;-50
2022/07/12 00:56:55;;;;;;;1.57;1.57;;;14.80;99.90;;;;;;5203937;28;20410;-48
2022/07/12 00:59:26;;;;;;;1.60;1.50;;;14.80;99.90;;;;;;5184826;28;20188;-47
2022/07/12 01:01:56;;;;;;;1.17;1.07;;;14.80;99.90;;;;;;5191719;28;20207;-48
2022/07/12 01:04:27;;;;;;;1.30;1.20;;;14.70;99.90;;;;;;5173460;28;20210;-48
2022/07/12 01:06:59;;;;;;;1.03;1.03;;;14.70;99.90;;;;;;5202450;28;20327;-49
2022/07/12 01:09:29;;;;;;;1.33;1.27;;;14.70;99.90;;;;;;5199456;28;20419;-48
2022/07/12 01:12:00;;;;;;;4.13;1.30;;;14.70;99.90;;;;;;5200311;28;20437;-47
2022/07/12 01:14:32;;;;;;;1.00;1.00;;;14.70;99.90;;;;;;5181402;28;20214;-48
2022/07/12 01:17:03;;;;;;;1.30;1.20;;;14.60;99.90;;;;;;5197246;28;20202;-48
2022/07/12 01:19:37;;;;;;;0.83;0.80;;;14.60;99.90;;;;;;5203032;28;20454;-48
2022/07/12 01:22:10;;;;;;;1.90;1.30;;;14.60;99.90;;;;;;5182396;28;20529;-48
2022/07/12 01:24:41;;;;;;;4.30;1.00;;;14.60;99.90;;;;;;5176951;28;20546;-47
2022/07/12 01:27:13;;;;;;;2.13;1.03;;;14.60;99.90;;;;;;5181114;28;20449;-50
2022/07/12 01:29:43;;;;;;;3.10;1.10;;;14.60;99.90;;;;;;5187566;28;20430;-48
2022/07/12 01:32:26;;;;;;;1.90;1.50;;;14.50;99.90;;;;;;5194094;28;20443;-48
2022/07/12 01:35:05;;;;;;;1.43;0.80;;;14.50;99.90;;;;;;5185515;28;20226;-48
2022/07/12 01:37:41;;;;;;;5.40;1.23;;;14.50;99.90;;;;;;5199620;28;20845;-48
2022/07/12 01:40:14;;;;;;;1.40;1.40;;;14.40;99.90;;;;;;5194351;28;20443;-50
2022/07/12 01:42:46;;;;;;;2.73;1.17;;;14.40;99.90;;;;;;5159665;28;20533;-47
2022/07/12 01:45:17;;;;;;;3.80;1.87;;;14.40;99.90;;;;;;5188135;28;20489;-49
2022/07/12 01:47:48;;;;;;;1.60;1.50;;;14.40;99.90;;;;;;5175987;28;20458;-46
2022/07/12 01:50:19;;;;;;;1.60;1.50;;;14.40;99.90;;;;;;5201570;28;20260;-49
2022/07/12 01:52:51;;;;;;;2.97;1.13;;;14.30;99.90;;;;;;5202821;28;20442;-46
2022/07/12 01:55:23;;;;;;;1.33;1.33;;;14.30;99.90;;;;;;5186279;28;20212;-49
2022/07/12 01:57:54;;;;;;;1.23;1.13;;;14.30;99.90;;;;;;5199817;28;20455;-47
2022/07/12 02:00:26;;;;;;;1.23;1.23;;;14.30;99.90;;;;;;5171352;28;21000;-52
2022/07/12 02:02:56;;;;;;;3.10;1.90;;;14.30;99.90;;;;;;5199337;28;20418;-48
2022/07/12 02:05:28;;;;;;;2.67;1.60;;;14.30;99.90;;;;;;5190643;28;21028;-47
2022/07/12 02:07:58;;;;;;;0.93;0.93;;;14.30;99.90;;;;;;5182753;28;20279;-48
2022/07/12 02:10:29;;;;;;;4.10;1.10;;;14.20;99.90;;;;;;5195450;28;20533;-49
2022/07/12 02:13:03;;;;;;;2.50;1.20;;;14.20;99.90;;;;;;5199437;28;20207;-48
2022/07/12 02:15:34;;;;;;;1.27;1.27;;;14.10;99.90;;;;;;5199853;28;20238;-50
2022/07/12 02:18:05;;;;;;;1.53;1.10;;;14.10;99.90;;;;;;5192423;28;20850;-48
2022/07/12 02:20:35;;;;;;;1.73;1.63;;;14.10;99.90;;;;;;5183005;28;20239;-49
2022/07/12 02:23:06;;;;;;;1.20;1.20;;;14.10;99.90;;;;;;5194364;28;20187;-48
2022/07/12 02:25:36;;;;;;;1.80;1.70;;;14.00;99.90;;;;;;5182780;28;20690;-47
2022/07/12 02:28:07;;;;;;;3.07;1.90;;;14.10;99.90;;;;;;5199771;28;20655;-47
2022/07/12 02:30:37;;;;;;;1.23;1.23;;;14.10;99.90;;;;;;5198924;28;20537;-49
2022/07/12 02:33:08;;;;;;;3.87;2.30;;;14.00;99.90;;;;;;5204967;28;20183;-47
2022/07/12 02:35:39;;;;;;;6.93;2.00;;;14.00;99.90;;;;;;5183643;28;20230;-48
2022/07/12 02:38:09;;;;;;;2.77;1.97;;;14.00;99.90;;;;;;5194226;28;20256;-47
2022/07/12 02:40:55;;;;;;;2.47;2.00;;;14.10;99.90;;;;;;5191412;28;20502;-47
2022/07/12 02:43:28;;;;;;;5.17;2.03;;;14.10;99.90;;;;;;5184086;28;20648;-49
2022/07/12 02:46:10;;;;;;;3.33;1.57;;;14.10;99.90;;;;;;5181265;28;20495;-48
2022/07/12 02:48:41;;;;;;;3.67;2.10;;;14.10;99.90;;;;;;5197112;28;20954;-49
2022/07/12 02:51:11;;;;;;;2.47;2.27;;;14.10;99.90;;;;;;5202141;28;20489;-48
2022/07/12 02:53:42;;;;;;;4.03;2.23;;;14.10;99.90;;;;;;5186340;28;20616;-49
2022/07/12 02:56:13;;;;;;;2.50;2.30;;;14.00;99.90;;;;;;5172376;28;20278;-47
2022/07/12 02:58:44;;;;;;;4.47;2.40;;;14.10;99.90;;;;;;5196751;28;20225;-48
2022/07/12 03:01:15;;;;;;;4.10;2.20;;;14.00;99.90;;;;;;5197091;28;20463;-48
2022/07/12 03:03:46;;;;;;;1.60;1.50;;;14.10;99.90;;;;;;5189693;28;20187;-47
2022/07/12 03:06:16;;;;;;;2.27;2.07;;;14.00;99.90;;;;;;5186167;28;20180;-48
2022/07/12 03:08:47;;;;;;;1.60;1.50;;;14.00;99.90;;;;;;5187266;28;20183;-48
2022/07/12 03:11:17;;;;;;;2.93;1.93;;;14.00;99.90;;;;;;5166009;28;20188;-49
2022/07/12 03:13:48;;;;;;;1.80;1.53;;;14.00;99.90;;;;;;5196302;28;20188;-47
2022/07/12 03:16:19;;;;;;;3.30;1.77;;;14.00;99.90;;;;;;5204442;28;20636;-48
2022/07/12 03:18:49;;;;;;;1.90;1.57;;;14.00;99.90;;;;;;5197156;28;20188;-47
2022/07/12 03:21:20;;;;;;;1.67;1.57;;;14.00;99.90;;;;;;5201859;28;20219;-47
2022/07/12 03:23:50;;;;;;;1.30;1.30;;;14.00;99.90;;;;;;5201106;28;20183;-48
2022/07/12 03:26:21;;;;;;;2.10;1.50;;;14.00;99.90;;;;;;5198378;28;20259;-48
2022/07/12 03:28:52;;;;;;;4.80;1.50;;;14.00;99.90;;;;;;5206840;28;20179;-48
2022/07/12 03:31:23;;;;;;;2.73;1.83;;;14.00;99.90;;;;;;5202316;28;20450;-47
2022/07/12 03:33:54;;;;;;;3.43;1.97;;;14.00;99.90;;;;;;5196670;28;20203;-49
2022/07/12 03:36:24;;;;;;;2.07;1.50;;;14.00;99.90;;;;;;5199911;28;20454;-48
2022/07/12 03:38:55;;;;;;;1.80;1.47;;;14.00;99.90;;;;;;5188870;28;20190;-48
2022/07/12 03:41:25;;;;;;;2.87;1.97;;;14.10;99.90;;;;;;5191941;28;20203;-48
2022/07/12 03:43:56;;;;;;;3.13;1.40;;;14.10;99.90;;;;;;5198574;28;20204;-47
2022/07/12 03:46:27;;;;;;;7.40;1.70;;;14.10;99.90;;;;;;5204599;28;20180;-47
2022/07/12 03:48:57;;;;;;;2.77;1.70;;;14.20;99.90;;;;;;5188447;28;20195;-47
2022/07/12 03:51:28;;;;;;;1.37;1.37;;;14.20;99.90;;;;;;5206588;28;20190;-50
2022/07/12 03:53:58;;;;;;;4.43;1.57;;;14.20;99.90;;;;;;5197447;28;20192;-50
2022/07/12 03:59:18;;;;;;;1.43;1.30;;;14.20;99.90;;;;;;5196028;28;20214;-49
2022/07/12 04:01:49;;;;;;;2.30;0.97;;;14.30;99.90;;;;;;5198357;28;20466;-48
2022/07/12 04:04:19;;;;;;;1.67;1.40;;;14.30;99.90;;;;;;5184559;28;20218;-46
2022/07/12 04:06:50;;;;;;;3.07;1.57;;;14.30;99.90;;;;;;5198902;28;20188;-48
2022/07/12 04:09:20;;;;;;;1.73;1.27;;;14.40;99.90;;;;;;5203596;28;20220;-49
2022/07/12 04:11:51;;;;;;;1.50;1.30;;;14.40;99.90;;;;;;5192607;28;20734;-46
2022/07/12 04:14:22;;;;;;;1.70;1.60;;;14.40;99.90;;;;;;5188818;28;20208;-47
2022/07/12 04:16:53;;;;;;;2.33;1.70;;;14.50;99.90;;;;;;5196055;28;20190;-48
2022/07/12 04:19:27;;;;;;;2.07;1.60;;;14.50;99.90;;;;;;5176239;28;20237;-47
2022/07/12 04:21:58;;;;;;;1.43;1.43;;;14.60;99.90;;;;;;5175286;28;20473;-46
2022/07/12 04:24:29;;;;;;;3.33;1.40;;;14.70;99.90;;;;;;5191727;28;20489;-49
2022/07/12 04:26:59;;;;;;;2.07;1.60;;;14.80;99.90;;;;;;5203704;28;20466;-47
2022/07/12 04:29:30;;;;;;;2.20;1.47;;;14.90;99.90;;;;;;5185641;28;20176;-49
2022/07/12 04:32:01;;;;;;;1.67;1.40;;;15.10;99.90;;;;;;5199188;28;20238;-47
2022/07/12 04:34:31;;;;;;;2.10;0.97;;;15.20;99.90;;;;;;5169592;28;20321;-47
2022/07/12 04:37:02;;;;;;;2.67;1.60;;;15.40;99.90;;;;;;5182308;28;20214;-48
2022/07/12 04:39:32;;;;;;;1.80;1.33;;;15.50;99.90;;;;;;5170768;28;20192;-48
2022/07/12 04:42:03;;;;;;;1.17;1.17;;;15.50;99.90;;;;;;5179743;28;20199;-47
2022/07/12 04:44:34;;;;;;;2.40;1.37;;;15.70;99.90;;;;;;5193875;28;20208;-49
2022/07/12 04:47:05;;;;;;;1.93;1.40;;;15.70;99.90;;;;;;5200828;28;20188;-48
2022/07/12 04:49:35;;;;;;;1.53;1.10;;;15.90;99.90;;;;;;5185779;28;20180;-49
2022/07/12 04:52:06;;;;;;;1.60;1.50;;;16.10;99.90;;;;;;5153240;28;20266;-48
2022/07/12 04:54:37;;;;;;;3.00;1.37;;;16.50;99.90;;;;;;5191253;28;20210;-47
2022/07/12 04:57:07;;;;;;;1.40;1.40;;;17.90;99.90;;;;;;5193505;28;20526;-47
2022/07/12 04:59:38;;;;;;;1.70;1.47;;;19.40;93.30;;;;;;5196673;28;20187;-47
2022/07/12 05:02:08;;;;;;;1.90;1.07;;;20.60;79.00;;;;;;5176600;28;20207;-49
2022/07/12 05:04:39;;;;;;;1.33;1.23;;;21.90;68.30;;;;;;5193294;28;20204;-48
2022/07/12 05:07:09;;;;;;;1.40;1.10;;;22.30;59.80;;;;;;5180886;28;20662;-47
2022/07/12 05:09:40;;;;;;;2.00;1.80;;;23.10;58.20;;;;;;5192948;28;20223;-46
2022/07/12 05:12:11;;;;;;;1.37;1.00;;;23.80;54.40;;;;;;5200797;28;20205;-48
2022/07/12 05:14:41;;;;;;;2.13;1.20;;;24.50;51.90;;;;;;5199762;28;20265;-49
2022/07/12 05:17:12;;;;;;;2.03;1.93;;;25.30;49.60;;;;;;5195517;28;20195;-49
2022/07/12 05:19:42;;;;;;;3.60;1.60;;;26.40;47.70;;;;;;5174037;28;20190;-48
2022/07/12 05:22:13;;;;;;;1.70;1.23;;;27.10;44.70;;;;;;5204521;28;20292;-48
2022/07/12 05:24:43;;;;;;;3.93;0.93;;;27.90;41.90;;;;;;5202410;28;20295;-49
2022/07/12 05:27:14;;;;;;;0.87;0.77;;;28.40;39.90;;;;;;5189968;28;20180;-48
2022/07/12 05:29:45;;;;;;;0.70;0.70;;;28.50;37.90;;;;;;5188063;28;20275;-48
2022/07/12 05:32:15;;;;;;;0.87;0.87;;;29.60;37.40;;;;;;5202062;28;20274;-49
2022/07/12 05:34:46;;;;;;;1.83;1.10;;;30.80;34.90;;;;;;5187445;28;20211;-48
2022/07/12 05:37:16;;;;;;;2.53;1.40;;;30.80;32.90;;;;;;5201779;28;20183;-49
2022/07/12 05:39:47;;;;;;;1.23;1.17;;;31.40;32.70;;;;;;5202806;28;20636;-48
2022/07/12 05:42:18;;;;;;;2.17;1.00;;;31.50;30.30;;;;;;5188115;28;20210;-48
2022/07/12 05:44:49;;;;;;;1.10;1.10;;;31.60;31.50;;;;;;5187766;28;20841;-49
2022/07/12 05:47:19;;;;;;;1.90;1.07;;;31.90;30.00;;;;;;5184042;28;20537;-48
2022/07/12 05:49:50;;;;;;;0.90;0.90;;;32.50;29.70;;;;;;5202484;28;20186;-49
2022/07/12 05:55:09;;;;;;;0.83;0.77;;;31.90;29.60;;;;;;5189499;28;20233;-50
2022/07/12 05:57:40;;;;;;;0.70;0.70;;;33.20;29.30;;;;;;5186240;28;20192;-49
2022/07/12 06:00:11;;;;;;;1.40;0.57;;;33.70;27.70;;;;;;5198238;28;20688;-50
2022/07/12 06:02:42;;;;;;;1.00;0.90;;;34.20;27.10;;;;;;5204023;28;20207;-52
2022/07/12 06:05:12;;;;;;;3.03;1.07;;;33.80;27.40;;;;;;5201899;28;20201;-48
2022/07/12 06:07:43;;;;;;;1.00;0.90;;;33.40;27.70;;;;;;5151550;28;20194;-50
2022/07/12 06:10:13;;;;;;;3.70;1.00;;;32.50;28.40;;;;;;5195850;28;20225;-50
2022/07/12 06:12:44;;;;;;;1.23;0.57;;;31.50;29.00;;;;;;5198395;28;20253;-50
2022/07/12 06:15:14;;;;;;;0.63;0.60;;;32.20;29.30;;;;;;5200080;28;20219;-49
2022/07/12 06:17:45;;;;;;;1.10;1.00;;;32.10;29.00;;;;;;5196790;28;20199;-50
2022/07/12 06:20:16;;;;;;;0.97;0.93;;;31.80;29.00;;;;;;5193871;28;20179;-48
2022/07/12 06:22:46;;;;;;;0.60;0.60;;;31.80;29.60;;;;;;5195538;28;20262;-48
2022/07/12 06:25:17;;;;;;;3.20;1.10;;;32.00;29.40;;;;;;5189440;28;20710;-51
2022/07/12 06:27:48;;;;;;;0.57;0.57;;;33.00;29.10;;;;;;5187321;28;20179;-51
2022/07/12 06:30:20;;;;;;;0.80;0.80;;;34.10;28.70;;;;;;5186993;28;20297;-50
2022/07/12 06:32:50;;;;;;;1.65;0.80;;;34.80;27.60;;;;;;5201140;28;20198;-48
2022/07/12 06:35:21;;;;;;;0.70;0.70;;;36.00;27.20;;;;;;5200472;28;20974;-49
2022/07/12 06:37:52;;;;;;;1.65;0.70;;;36.90;25.60;;;;;;5187636;28;20624;-50
2022/07/12 06:40:22;;;;;;;0.85;0.50;;;37.30;25.40;;;;;;5203821;28;20191;-50
2022/07/12 06:42:53;;;;;;;0.93;0.93;;;37.00;25.50;;;;;;5205961;28;20211;-49
2022/07/12 06:45:24;;;;;;;0.55;0.55;;;37.50;25.30;;;;;;5190334;28;20209;-50
2022/07/12 06:47:54;;;;;;;1.00;1.00;;;38.10;25.10;;;;;;5208388;28;20233;-50
2022/07/12 06:50:25;;;;;;;3.25;1.02;;;38.60;24.40;;;;;;5188067;28;20222;-54
2022/07/12 06:52:56;;;;;;;1.10;1.00;;;38.80;24.30;;;;;;5189248;28;20183;-50
2022/07/12 06:55:27;;;;;;;0.90;0.90;;;38.30;24.00;;;;;;5195800;28;20206;-51
2022/07/12 06:57:57;;;;;;;0.70;0.70;;;37.90;24.70;;;;;;5194975;28;20659;-50
2022/07/12 07:00:28;;;;;;;3.42;0.80;;;37.80;24.30;;;;;;5194285;28;20669;-49
2022/07/12 07:02:59;;;;;;;0.63;0.63;;;38.10;24.80;;;;;;5202335;28;20214;-49
2022/07/12 07:05:29;;;;;;;2.67;0.98;;;37.50;23.90;;;;;;5201893;28;20221;-51
2022/07/12 07:08:00;;;;;;;1.85;1.38;;;37.20;24.90;;;;;;5200659;28;20183;-51
2022/07/12 07:10:30;;;;;;;1.08;0.98;;;37.40;24.60;;;;;;5204326;28;20271;-49
2022/07/12 07:13:01;;;;;;;1.15;1.00;;;36.40;25.20;;;;;;5207805;28;20199;-51
2022/07/12 07:15:31;;;;;;;2.47;1.20;;;35.70;25.60;;;;;;5189786;28;20199;-49
2022/07/12 07:18:02;;;;;;;0.95;0.95;;;36.10;25.90;;;;;;5202424;28;20191;-49
2022/07/12 07:20:33;;;;;;;1.95;1.13;;;36.70;25.30;;;;;;5205365;28;20183;-51
2022/07/12 07:23:04;;;;;;;1.33;1.33;;;36.70;25.20;;;;;;5197720;28;20202;-51
2022/07/12 07:25:34;;;;;;;0.90;0.90;;;37.10;25.30;;;;;;5204906;28;20195;-50
2022/07/12 07:28:05;;;;;;;2.58;0.95;;;37.10;25.10;;;;;;5177871;28;20190;-49
2022/07/12 07:30:53;;;;;;;1.00;1.00;;;37.10;25.10;;;;;;5181434;28;20206;-49
2022/07/12 07:33:25;;;;;;;1.05;0.95;;;37.20;25.10;;;;;;5190216;28;20218;-50
2022/07/12 07:35:55;;;;;;;1.92;1.13;;;38.00;24.50;;;;;;5187676;28;20280;-53
2022/07/12 07:38:26;;;;;;;3.22;1.98;;;38.60;24.40;;;;;;5189380;28;20259;-50
2022/07/12 07:40:56;;;;;;;2.08;1.17;;;38.10;23.50;;;;;;5205262;28;20640;-51
2022/07/12 07:43:27;;;;;;;1.33;0.90;;;37.20;24.00;;;;;;5207236;28;20269;-49
2022/07/12 07:45:58;;;;;;;2.58;0.80;;;37.30;24.40;;;;;;5209832;28;20203;-49
2022/07/12 07:48:29;;;;;;;5.43;1.00;;;37.50;24.30;;;;;;5193569;28;20551;-50
2022/07/12 07:51:00;;;;;;;1.25;0.80;;;37.10;24.40;;;;;;5206939;28;20202;-51
2022/07/12 07:53:30;;;;;;;0.90;0.90;;;35.70;25.40;;;;;;5191270;28;20194;-52
2022/07/12 07:56:01;;;;;;;0.65;0.60;;;36.40;25.70;;;;;;5197948;28;20207;-49
2022/07/12 07:58:32;;;;;;;1.38;0.95;;;36.00;25.10;;;;;;5205093;28;20214;-50
2022/07/12 08:01:02;;;;;;;2.00;1.00;;;35.40;26.50;;;;;;5199928;28;20206;-49
2022/07/12 08:03:33;;;;;;;3.92;1.15;;;36.10;25.90;;;;;;5188944;28;20190;-50
2022/07/12 08:06:03;;;;;;;0.70;0.70;;;35.00;25.80;;;;;;5188770;28;20210;-50
2022/07/12 08:08:34;;;;;;;1.70;0.90;;;34.80;26.20;;;;;;5190569;28;20270;-48
2022/07/12 08:11:05;;;;;;;3.25;1.17;;;34.70;26.40;;;;;;5204185;28;20270;-49
2022/07/12 08:13:35;;;;;;;3.85;0.82;;;35.50;25.80;;;;;;5204245;28;20327;-51
2022/07/12 08:16:06;;;;;;;1.42;0.70;;;35.90;25.90;;;;;;5204269;28;20206;-50
2022/07/12 08:18:36;;;;;;;0.50;0.50;;;35.60;25.30;;;;;;5188501;28;20237;-50
2022/07/12 08:21:07;;;;;;;2.10;1.10;;;34.70;25.70;;;;;;5188895;28;20253;-50
2022/07/12 08:23:38;;;;;;;3.13;0.80;;;34.20;26.40;;;;;;5190502;28;20249;-49
2022/07/12 08:26:08;;;;;;;0.60;0.60;;;34.80;26.90;;;;;;5187832;28;20200;-52
2022/07/12 08:28:39;;;;;;;1.73;0.80;;;34.90;25.40;;;;;;5205924;28;20199;-50
2022/07/12 08:31:10;;;;;;;0.60;0.60;;;34.30;26.80;;;;;;5208002;28;20270;-49
2022/07/12 08:33:41;;;;;;;1.53;1.17;;;34.30;26.30;;;;;;5186414;28;21291;-52
2022/07/12 08:36:11;;;;;;;4.30;1.30;;;35.00;25.60;;;;;;5186626;28;20280;-51
2022/07/12 08:38:44;;;;;;;5.00;1.00;;;35.20;25.40;;;;;;5184190;28;20195;-51
2022/07/12 08:41:15;;;;;;;0.73;0.70;;;35.00;25.30;;;;;;5198743;28;20199;-50
2022/07/12 08:43:46;;;;;;;4.50;1.60;;;34.80;26.20;;;;;;5203533;28;20186;-49
2022/07/12 08:46:16;;;;;;;0.70;0.50;;;34.70;25.90;;;;;;5202819;28;20194;-50
2022/07/12 08:48:47;;;;;;;1.03;0.93;;;34.10;25.80;;;;;;5182590;28;20191;-51
2022/07/12 08:51:21;;;;;;;2.87;0.80;;;34.50;25.70;;;;;;5202955;28;20191;-50
2022/07/12 08:54:15;;;;;;;0.83;0.83;;;33.50;25.10;;;;;;5189977;28;20230;-50
2022/07/12 08:56:46;;;;;;;0.70;0.60;;;31.60;26.50;;;;;;5197707;28;20429;-48
2022/07/12 08:59:21;;;;;;;2.30;1.00;;;29.70;29.50;;;;;;5176018;28;20442;-50
2022/07/12 09:01:53;;;;;;;0.50;0.50;;;27.80;31.80;;;;;;5188203;28;20612;-49
2022/07/12 09:04:27;;;;;;;2.90;1.13;;;26.30;34.70;;;;;;5185956;28;20497;-49
2022/07/12 09:07:13;;;;;;;0.90;0.80;;;25.40;36.40;;;;;;5189666;28;20438;-49
2022/07/12 09:09:43;;;;;;;1.57;1.33;;;24.90;37.20;;;;;;5198416;28;20464;-49
2022/07/12 09:12:23;;;;;;;2.00;0.90;;;24.40;39.30;;;;;;5194320;28;21037;-50
2022/07/12 09:14:54;;;;;;;4.73;1.03;;;24.10;39.80;;;;;;5206450;28;20207;-50
2022/07/12 09:17:24;;;;;;;1.00;1.00;;;23.80;40.70;;;;;;5205216;28;20473;-48
2022/07/12 09:19:56;;;;;;;0.90;0.80;;;24.00;41.30;;;;;;5203626;28;20179;-51
2022/07/12 09:22:26;;;;;;;0.80;0.80;;;24.20;40.90;;;;;;5201479;28;20212;-50
2022/07/12 09:25:02;;;;;;;2.30;0.80;;;24.20;40.40;;;;;;5205632;28;20535;-49
2022/07/12 09:27:33;;;;;;;0.80;0.80;;;24.40;40.80;;;;;;5196996;28;20176;-52
2022/07/12 09:30:09;;;;;;;0.73;0.73;;;24.50;40.80;;;;;;5204059;28;20438;-51
2022/07/12 09:36:06;;;;;;;2.40;1.40;;;24.30;41.50;;;;;;5223772;22;20548;-48
2022/07/12 09:38:38;;;;;;;2.80;1.37;;;24.40;41.20;;;;;;5216537;28;20426;-48
2022/07/12 09:41:09;;;;;;;2.13;1.23;;;24.50;41.00;;;;;;5202738;28;20664;-48
2022/07/12 09:43:40;;;;;;;1.10;1.10;;;24.60;41.30;;;;;;5205846;28;20860;-48
2022/07/12 09:46:13;;;;;;;0.60;0.60;;;24.50;41.20;;;;;;5223439;28;20214;-50
2022/07/12 09:48:45;;;;;;;0.70;0.70;;;24.60;41.40;;;;;;5204221;28;20190;-48
2022/07/12 09:51:17;;;;;;;0.93;0.70;;;24.70;40.50;;;;;;5212959;28;20460;-47
2022/07/12 09:53:48;;;;;;;7.00;0.50;;;24.80;41.10;;;;;;5193502;28;20533;-48
2022/07/12 09:56:21;;;;;;;0.90;0.90;;;24.70;39.60;;;;;;5202922;28;20469;-49
2022/07/12 09:58:57;;;;;;;5.70;0.87;;;24.60;40.50;;;;;;5216750;28;20806;-48
2022/07/12 10:01:30;;;;;;;1.50;0.83;;;24.50;40.10;;;;;;5204392;28;21012;-48
2022/07/12 10:04:01;;;;;;;0.80;0.80;;;24.30;40.90;;;;;;5199517;28;20429;-47
2022/07/12 10:06:32;;;;;;;1.10;1.10;;;24.30;41.40;;;;;;5214672;28;20820;-47
2022/07/12 10:09:06;;;;;;;1.27;1.27;;;24.50;41.00;;;;;;5198891;28;20441;-48
2022/07/12 10:11:38;;;;;;;15.23;6.30;;;24.50;40.50;;;;;;5190429;28;20659;-47
2022/07/12 10:14:12;;;;;;;1.77;1.67;;;24.30;40.00;;;;;;5188363;28;20954;-49
2022/07/12 10:16:44;;;;;;;0.70;0.70;;;24.50;39.30;;;;;;5219392;28;21222;-47
2022/07/12 10:19:32;;;;;;;1.17;1.10;;;24.40;38.30;;;;;;5192414;28;20445;-48
2022/07/12 10:22:06;;;;;;;7.23;1.00;;;24.50;39.40;;;;;;5199367;28;20830;-48
2022/07/12 10:24:36;;;;;;;2.87;0.90;;;24.60;39.50;;;;;;5210563;28;20526;-46
2022/07/12 10:27:13;;;;;;;1.43;1.00;;;24.80;39.40;;;;;;5220654;28;20433;-48
2022/07/12 10:29:45;;;;;;;0.80;0.80;;;24.70;38.70;;;;;;5215657;28;20179;-48
2022/07/12 10:32:25;;;;;;;0.70;0.70;;;24.60;39.10;;;;;;5207229;28;20845;-48
2022/07/12 10:35:00;;;;;;;0.80;0.80;;;24.50;38.90;;;;;;5204092;28;20457;-49
2022/07/12 10:37:31;;;;;;;1.70;1.20;;;24.60;38.70;;;;;;5218470;28;20463;-49
2022/07/12 10:40:17;;;;;;;0.70;0.70;;;24.90;39.30;;;;;;5204928;28;20426;-48
2022/07/12 10:43:08;;;;;;;0.70;0.60;;;25.10;38.60;;;;;;5217642;28;20461;-49
2022/07/12 10:45:44;;;;;;;1.90;0.80;;;25.30;38.40;;;;;;5210137;28;20453;-49
2022/07/12 10:48:15;;;;;;;2.53;1.97;;;25.40;38.50;;;;;;5203263;28;20440;-48
2022/07/12 10:50:45;;;;;;;1.30;1.30;;;25.30;38.70;;;;;;5206973;28;20483;-49
2022/07/12 10:53:20;;;;;;;1.23;1.00;;;25.20;39.30;;;;;;5201437;28;20195;-48
2022/07/12 10:56:13;;;;;;;0.80;0.80;;;25.10;38.50;;;;;;5228348;28;20217;-48
2022/07/12 10:58:47;;;;;;;0.53;0.53;;;25.30;39.00;;;;;;5207348;28;20486;-48
2022/07/12 11:01:21;;;;;;;1.83;1.67;;;25.40;38.20;;;;;;5210297;28;20499;-48
2022/07/12 11:04:11;;;;;;;11.13;2.83;;;25.20;38.70;;;;;;5209912;28;20444;-48
2022/07/12 11:06:42;;;;;;;2.50;1.30;;;25.60;39.20;;;;;;5205735;28;20515;-48
2022/07/12 11:09:17;;;;;;;7.50;1.40;;;25.90;38.50;;;;;;5210671;28;20465;-50
2022/07/12 11:11:49;;;;;;;0.80;0.80;;;25.80;38.20;;;;;;5215754;28;20487;-48
2022/07/12 11:14:32;;;;;;;0.97;0.90;;;25.90;38.40;;;;;;5225943;28;20468;-48
2022/07/12 11:17:02;;;;;;;1.10;0.97;;;25.90;38.50;;;;;;5202578;28;20456;-48
2022/07/12 11:19:33;;;;;;;0.87;0.83;;;25.90;38.70;;;;;;5198840;28;21863;-48
2022/07/12 11:22:04;;;;;;;5.40;1.57;;;25.80;37.90;;;;;;5207568;28;20297;-48
2022/07/12 11:24:35;;;;;;;2.33;0.93;;;25.90;38.70;;;;;;5214559;28;20172;-48
2022/07/12 11:27:06;;;;;;;1.17;1.17;;;25.80;38.10;;;;;;5211568;28;20434;-48
2022/07/12 11:29:37;;;;;;;1.40;1.30;;;25.80;38.80;;;;;;5203874;28;20746;-47
2022/07/12 11:32:08;;;;;;;0.97;0.70;;;26.00;38.90;;;;;;5207863;28;20227;-48
2022/07/12 11:34:39;;;;;;;1.50;0.80;;;25.90;38.40;;;;;;5217653;28;20429;-47
2022/07/12 11:37:11;;;;;;;2.50;2.30;;;25.70;39.00;;;;;;5206729;28;20731;-47
2022/07/12 11:39:42;;;;;;;2.70;1.70;;;25.30;39.90;;;;;;5222539;28;20517;-47
2022/07/12 11:42:12;;;;;;;7.80;3.30;;;25.40;40.40;;;;;;5208084;28;20505;-47
2022/07/12 11:44:51;;;;;;;9.53;1.07;;;25.20;39.70;;;;;;5221043;28;20199;-48
2022/07/12 11:47:22;;;;;;;1.70;1.07;;;25.20;40.10;;;;;;5224927;28;20197;-47
2022/07/12 11:49:55;;;;;;;2.60;2.20;;;25.30;40.30;;;;;;5206891;28;20777;-48
2022/07/12 11:52:26;;;;;;;3.07;1.90;;;25.40;40.30;;;;;;5222402;28;20480;-48
2022/07/12 11:54:57;;;;;;;2.10;1.90;;;25.60;40.10;;;;;;5225885;28;20538;-48
2022/07/12 11:57:29;;;;;;;1.93;1.43;;;25.90;40.20;;;;;;5209125;28;20704;-49
2022/07/12 12:00:16;;;;;;;3.00;1.10;;;26.20;39.20;;;;;;5199075;28;20183;-49
2022/07/12 12:02:52;;;;;;;1.00;0.90;;;26.80;38.40;;;;;;5220453;28;20461;-47
2022/07/12 12:05:23;;;;;;;1.13;0.90;;;26.90;37.80;;;;;;5221071;28;20794;-48
2022/07/12 12:07:54;;;;;;;0.80;0.80;;;27.00;37.90;;;;;;5209488;28;20426;-48
2022/07/12 12:10:24;;;;;;;2.30;1.80;;;27.20;37.60;;;;;;5198638;28;20434;-47
2022/07/12 12:12:56;;;;;;;1.57;1.47;;;27.00;37.70;;;;;;5215971;28;20195;-48
2022/07/12 12:15:32;;;;;;;0.70;0.70;;;26.90;37.50;;;;;;5196807;28;20226;-47
2022/07/12 12:18:07;;;;;;;1.97;1.50;;;26.60;37.00;;;;;;5206652;28;20812;-47
2022/07/12 12:20:41;;;;;;;1.30;1.30;;;26.50;37.20;;;;;;5214727;28;20618;-48
2022/07/12 12:23:17;;;;;;;1.73;0.67;;;26.60;37.90;;;;;;5216734;28;20468;-49
2022/07/12 12:25:48;;;;;;;1.53;0.83;;;26.60;37.90;;;;;;5204980;28;20460;-47
2022/07/12 12:28:18;;;;;;;2.50;1.20;;;26.50;38.10;;;;;;5218488;28;20434;-46
2022/07/12 12:30:54;;;;;;;2.73;2.33;;;26.60;38.30;;;;;;5193802;28;20182;-49
2022/07/12 12:33:43;;;;;;;7.40;1.23;;;26.60;37.90;;;;;;5217221;28;20204;-46
2022/07/12 12:36:22;;;;;;;2.17;1.70;;;26.50;37.90;;;;;;5218042;28;20476;-47
2022/07/12 12:38:57;;;;;;;0.70;0.70;;;26.60;37.80;;;;;;5222323;28;20441;-46
2022/07/12 12:41:30;;;;;;;1.87;1.77;;;26.60;37.60;;;;;;5220248;28;20498;-47
2022/07/12 12:44:02;;;;;;;0.83;0.83;;;26.60;37.40;;;;;;5219872;28;20425;-47
2022/07/12 12:46:55;;;;;;;1.13;1.13;;;26.30;37.40;;;;;;5205567;28;20457;-47
2022/07/12 12:49:45;;;;;;;1.70;1.70;;;26.10;38.10;;;;;;5221736;28;20442;-45
2022/07/12 12:52:16;;;;;;;1.50;1.40;;;26.20;38.00;;;;;;5218123;28;20437;-46
2022/07/12 12:54:47;;;;;;;0.70;0.70;;;26.20;38.00;;;;;;5224657;28;20888;-45
2022/07/12 12:57:17;;;;;;;0.87;0.83;;;26.20;37.80;;;;;;5220951;28;20442;-49
2022/07/12 12:59:48;;;;;;;1.60;1.50;;;25.90;38.40;;;;;;5201464;28;20188;-46
2022/07/12 13:02:20;;;;;;;1.27;1.20;;;25.80;38.60;;;;;;5203435;28;20207;-46
2022/07/12 13:04:50;;;;;;;7.87;5.10;;;25.70;38.80;;;;;;5221462;28;20263;-46
2022/07/12 13:07:21;;;;;;;1.47;1.37;;;25.80;39.40;;;;;;5206107;28;20513;-47
2022/07/12 13:09:52;;;;;;;1.27;1.17;;;26.00;39.30;;;;;;5188892;28;20183;-46
2022/07/12 13:12:22;;;;;;;2.63;0.93;;;26.20;39.30;;;;;;5203306;28;20519;-46
2022/07/12 13:14:53;;;;;;;0.70;0.70;;;26.30;38.80;;;;;;5204232;28;20202;-46
2022/07/12 13:17:23;;;;;;;3.77;1.43;;;26.10;38.50;;;;;;5200382;28;20195;-48
2022/07/12 13:19:54;;;;;;;1.90;1.23;;;26.20;38.90;;;;;;5189691;28;20278;-46
2022/07/12 13:22:25;;;;;;;0.60;0.60;;;26.40;39.10;;;;;;5219957;28;20213;-46